Time,TemperatureF,DewpointF,PressureIn,WindDirection,WindDirectionDegrees,WindSpeedMPH,WindSpeedGustMPH,Humidity,HourlyPrecipIn,Conditions,Clouds,dailyrainin,SoftwareType,DateUTC
2013-04-02 00:00:00,28.6,20.1,29.81,NW,315,0.0,2.0,70,0.00,,---,0.00,VWS V14.01,2013-04-02 06:00:00,
2013-04-02 00:30:00,27.5,18.0,29.82,North,0,0.0,2.0,67,0.00,,---,0.00,VWS V14.01,2013-04-02 06:30:00,
2013-04-02 01:00:00,27.1,16.9,29.83,North,0,0.0,1.0,65,0.00,,---,0.00,VWS V14.01,2013-04-02 07:00:00,
2013-04-02 01:30:00,26.0,18.5,29.83,North,0,0.0,1.0,73,0.00,,---,0.00,VWS V14.01,2013-04-02 07:30:00,
2013-04-02 02:00:00,26.0,18.2,29.83,North,0,0.0,1.0,72,0.00,,---,0.00,VWS V14.01,2013-04-02 08:00:00,
2013-04-02 02:30:00,25.7,18.6,29.83,NE,45,0.0,2.0,74,0.00,,---,0.00,VWS V14.01,2013-04-02 08:30:00,
2013-04-02 03:00:00,24.7,16.6,29.83,NW,315,0.0,1.0,71,0.00,,---,0.00,VWS V14.01,2013-04-02 09:00:00,
2013-04-02 03:30:00,24.2,18.0,29.82,NW,315,0.0,1.0,77,0.00,,---,0.00,VWS V14.01,2013-04-02 09:30:00,
2013-04-02 04:00:00,23.6,16.5,29.82,East,90,0.0,2.0,74,0.00,,---,0.00,VWS V14.01,2013-04-02 10:00:00,
2013-04-02 04:30:00,24.3,17.2,29.83,West,270,0.0,2.0,74,0.00,,---,0.00,VWS V14.01,2013-04-02 10:30:00,
2013-04-02 05:00:00,24.4,17.3,29.84,West,270,0.0,2.0,74,0.00,,---,0.00,VWS V14.01,2013-04-02 11:00:00,
2013-04-02 05:30:00,25.3,16.9,29.84,West,270,0.0,3.0,70,0.00,,---,0.00,VWS V14.01,2013-04-02 11:30:00,
2013-04-02 06:00:00,25.6,16.9,29.85,West,270,2.0,7.0,69,0.00,,---,0.00,VWS V14.01,2013-04-02 12:00:00,
2013-04-02 06:30:00,25.4,16.3,29.85,West,270,3.0,8.0,68,0.00,,---,0.00,VWS V14.01,2013-04-02 12:30:00,
2013-04-02 07:00:00,25.3,16.2,29.86,West,270,3.0,9.0,68,0.00,,---,0.00,VWS V14.01,2013-04-02 13:00:00,
2013-04-02 07:30:00,25.4,16.3,29.88,WNW,292,5.0,11.0,68,0.00,,---,0.00,VWS V14.01,2013-04-02 13:30:00,
2013-04-02 08:00:00,25.7,17.0,29.88,WNW,292,3.0,7.0,69,0.00,,---,0.00,VWS V14.01,2013-04-02 14:00:00,
2013-04-02 08:30:00,31.3,17.4,29.88,WNW,292,4.0,9.0,56,0.00,,---,0.00,VWS V14.01,2013-04-02 14:30:00,
2013-04-02 09:00:00,34.0,16.4,29.86,WNW,292,6.0,10.0,48,0.00,,---,0.00,VWS V14.01,2013-04-02 15:00:00,
2013-04-02 09:30:00,38.1,17.0,29.84,WNW,292,6.0,12.0,42,0.00,,---,0.00,VWS V14.01,2013-04-02 15:30:00,
2013-04-02 10:00:00,42.2,13.8,29.83,WNW,292,3.0,7.0,31,0.00,,---,0.00,VWS V14.01,2013-04-02 16:00:00,
2013-04-02 10:30:00,47.2,12.3,29.82,WNW,292,2.0,7.0,24,0.00,,---,0.00,VWS V14.01,2013-04-02 16:30:00,
2013-04-02 11:00:00,46.3,11.5,29.81,NW,315,2.0,6.0,24,0.00,,---,0.00,VWS V14.01,2013-04-02 17:00:00,
2013-04-02 11:30:00,46.2,9.5,29.80,WNW,292,3.0,10.0,22,0.00,,---,0.00,VWS V14.01,2013-04-02 17:30:00,
2013-04-02 12:00:00,47.2,8.2,29.79,East,90,5.0,18.0,20,0.00,,---,0.00,VWS V14.01,2013-04-02 18:00:00,
2013-04-02 12:30:00,47.9,9.9,29.78,ENE,68,7.0,17.0,21,0.00,,---,0.00,VWS V14.01,2013-04-02 18:30:00,
2013-04-02 13:00:00,46.9,9.0,29.78,ENE,68,8.0,20.0,21,0.00,,---,0.00,VWS V14.01,2013-04-02 19:00:00,
2013-04-02 13:30:00,46.8,8.9,29.77,WNW,292,5.0,17.0,21,0.00,,---,0.00,VWS V14.01,2013-04-02 19:30:00,
2013-04-02 14:00:00,49.5,11.2,29.76,WNW,292,7.0,18.0,21,0.00,,---,0.00,VWS V14.01,2013-04-02 20:00:00,
2013-04-02 14:30:00,48.1,13.0,29.76,WNW,292,8.0,24.0,24,0.00,,---,0.00,VWS V14.01,2013-04-02 20:30:00,
2013-04-02 15:00:00,50.2,10.7,29.76,WNW,292,6.0,19.0,20,0.00,,---,0.00,VWS V14.01,2013-04-02 21:00:00,
2013-04-02 15:30:00,48.8,10.6,29.76,WNW,292,5.0,15.0,21,0.00,,---,0.00,VWS V14.01,2013-04-02 21:30:00,
2013-04-02 16:00:00,47.5,11.6,29.76,WNW,292,6.0,19.0,23,0.00,,---,0.00,VWS V14.01,2013-04-02 22:00:00,
2013-04-02 16:30:00,48.0,8.9,29.76,WNW,292,5.0,14.0,20,0.00,,---,0.00,VWS V14.01,2013-04-02 22:30:00,
2013-04-02 17:00:00,50.9,6.3,29.76,WNW,292,3.0,11.0,16,0.00,,---,0.00,VWS V14.01,2013-04-02 23:00:00,
2013-04-02 17:30:00,49.6,6.6,29.77,WNW,292,5.0,15.0,17,0.00,,---,0.00,VWS V14.01,2013-04-02 23:30:00,
2013-04-02 18:00:00,46.5,13.5,29.79,WNW,292,9.0,20.0,26,0.00,,---,0.00,VWS V14.01,2013-04-03 00:00:00,
2013-04-02 18:30:00,46.3,12.4,29.81,WNW,292,6.0,14.0,25,0.00,,---,0.00,VWS V14.01,2013-04-03 00:30:00,
2013-04-02 19:00:00,43.3,14.0,29.83,WNW,292,5.0,11.0,30,0.00,,---,0.00,VWS V14.01,2013-04-03 01:00:00,
2013-04-02 19:30:00,41.4,15.8,29.85,West,270,3.0,12.0,35,0.00,,---,0.00,VWS V14.01,2013-04-03 01:30:00,
2013-04-02 20:00:00,38.8,18.2,29.86,West,270,1.0,5.0,43,0.00,,---,0.00,VWS V14.01,2013-04-03 02:00:00,
2013-04-02 20:30:00,37.4,23.6,29.89,ESE,112,0.0,4.0,57,0.00,,---,0.00,VWS V14.01,2013-04-03 02:30:00,
2013-04-02 21:00:00,36.1,26.2,29.91,SSE,158,1.0,7.0,67,0.00,,---,0.00,VWS V14.01,2013-04-03 03:00:00,
2013-04-02 21:30:00,35.4,26.6,29.92,ENE,68,1.0,4.0,70,0.00,,---,0.00,VWS V14.01,2013-04-03 03:30:00,
2013-04-02 22:00:00,33.6,25.9,29.93,ENE,68,0.0,2.0,73,0.00,,---,0.00,VWS V14.01,2013-04-03 04:00:00,
2013-04-02 22:30:00,33.1,26.0,29.94,ENE,68,0.0,1.0,75,0.00,,---,0.00,VWS V14.01,2013-04-03 04:30:00,
2013-04-02 23:00:00,32.5,26.4,29.95,ENE,68,0.0,2.0,78,0.00,,---,0.00,VWS V14.01,2013-04-03 05:00:00,
2013-04-02 23:30:00,31.2,25.8,29.95,East,90,0.0,1.0,80,0.00,,---,0.00,VWS V14.01,2013-04-03 05:30:00,